Time;durP1;ratioP1;P1;durP2;ratioP2;P2;SDS_P1;SDS_P2;PMS_P1;PMS_P2;Temp;Humidity;BMP_temperature;BMP_pressure;BME280_temperature;BME280_humidity;BME280_pressure;Samples;Min_cycle;Max_cycle;Signal;HPM_P1;HPM_P2
2021/06/19 00:00:18;;;;;;;10.53;7.97;;;25.90;66.80;;;;;;5016978;28;20487;-49
2021/06/19 00:02:45;;;;;;;8.67;7.70;;;25.90;67.20;;;;;;5016846;28;20853;-49
2021/06/19 00:05:13;;;;;;;15.43;7.87;;;25.90;67.20;;;;;;5018515;28;20470;-49
2021/06/19 00:07:40;;;;;;;9.60;7.83;;;25.90;67.20;;;;;;5017406;28;20456;-49
2021/06/19 00:10:09;;;;;;;8.97;8.07;;;25.90;67.30;;;;;;5018685;28;20470;-49
2021/06/19 00:12:37;;;;;;;8.90;7.37;;;25.80;67.40;;;;;;5000783;28;20473;-49
2021/06/19 00:15:10;;;;;;;13.30;8.17;;;25.80;67.70;;;;;;5018293;28;20875;-49
2021/06/19 00:17:38;;;;;;;7.60;6.63;;;25.80;67.50;;;;;;5016710;28;20498;-48
2021/06/19 00:20:13;;;;;;;8.37;7.30;;;25.80;67.50;;;;;;5018961;28;20514;-49
2021/06/19 00:22:42;;;;;;;11.60;7.67;;;25.70;67.40;;;;;;5020855;28;20995;-49
2021/06/19 00:25:10;;;;;;;9.63;7.93;;;25.70;67.50;;;;;;5008257;28;20458;-48
2021/06/19 00:27:37;;;;;;;10.17;8.00;;;25.70;67.80;;;;;;5018511;28;20454;-48
2021/06/19 00:30:06;;;;;;;15.87;8.90;;;25.70;67.80;;;;;;5020640;28;20490;-49
2021/06/19 00:32:35;;;;;;;8.90;7.40;;;25.70;67.50;;;;;;5021873;28;20458;-48
2021/06/19 00:35:04;;;;;;;9.13;7.20;;;25.70;67.40;;;;;;5022340;28;20537;-49
2021/06/19 00:37:33;;;;;;;10.87;7.70;;;25.70;67.50;;;;;;5019350;28;20477;-49
2021/06/19 00:40:00;;;;;;;9.50;8.10;;;25.70;67.70;;;;;;5020844;28;20487;-50
2021/06/19 00:42:27;;;;;;;9.23;7.83;;;25.70;67.80;;;;;;5023115;28;20451;-49
2021/06/19 00:44:58;;;;;;;9.43;8.40;;;25.70;67.90;;;;;;5019283;28;20479;-50
2021/06/19 00:47:28;;;;;;;8.77;7.70;;;25.70;68.10;;;;;;5007673;28;20455;-49
2021/06/19 00:49:55;;;;;;;8.20;6.70;;;25.60;68.10;;;;;;5020137;28;20841;-49
2021/06/19 00:52:21;;;;;;;12.20;7.77;;;25.60;68.20;;;;;;5021586;28;21072;-50
2021/06/19 00:54:48;;;;;;;10.80;8.63;;;25.60;68.30;;;;;;5008876;28;20471;-49
2021/06/19 00:57:16;;;;;;;8.77;7.83;;;25.60;68.00;;;;;;5021374;28;20465;-49
2021/06/19 00:59:43;;;;;;;12.90;8.00;;;25.70;67.40;;;;;;5007662;28;20808;-49
2021/06/19 01:02:10;;;;;;;12.30;8.13;;;25.60;67.60;;;;;;5021930;28;20990;-50
2021/06/19 01:04:37;;;;;;;9.37;7.87;;;25.60;67.70;;;;;;5019346;28;20475;-49
2021/06/19 01:07:04;;;;;;;10.30;8.03;;;25.50;68.20;;;;;;5022694;28;20463;-49
2021/06/19 01:09:31;;;;;;;12.23;7.70;;;25.40;68.30;;;;;;5013325;28;20451;-50
2021/06/19 01:11:57;;;;;;;8.80;7.20;;;25.50;67.80;;;;;;5022000;28;20467;-49
2021/06/19 01:14:25;;;;;;;7.73;7.03;;;25.50;67.90;;;;;;5015447;28;20978;-49
2021/06/19 01:16:52;;;;;;;9.03;7.97;;;25.50;67.80;;;;;;5010602;28;20517;-49
2021/06/19 01:19:19;;;;;;;11.90;8.03;;;25.50;67.90;;;;;;5023854;28;21114;-49
2021/06/19 01:21:50;;;;;;;12.77;7.70;;;25.40;68.00;;;;;;5017342;28;20480;-49
2021/06/19 01:24:17;;;;;;;14.90;8.10;;;25.40;68.00;;;;;;5007418;28;20997;-49
2021/06/19 01:26:44;;;;;;;11.57;8.23;;;25.30;68.20;;;;;;5021858;28;20464;-49
2021/06/19 01:29:11;;;;;;;9.00;7.43;;;25.30;68.40;;;;;;5020466;28;20820;-49
2021/06/19 01:31:40;;;;;;;10.73;7.83;;;25.20;68.70;;;;;;5023392;28;20470;-50
2021/06/19 01:34:07;;;;;;;10.03;8.10;;;25.20;68.90;;;;;;5020091;28;20478;-50
2021/06/19 01:36:34;;;;;;;13.30;8.30;;;25.20;69.30;;;;;;5022049;28;20474;-49
2021/06/19 01:39:01;;;;;;;8.50;7.33;;;25.20;69.10;;;;;;5021922;28;20540;-49
2021/06/19 01:41:30;;;;;;;9.13;8.20;;;25.20;69.10;;;;;;5021435;28;20494;-49
2021/06/19 01:44:08;;;;;;;10.77;7.63;;;25.20;69.20;;;;;;5023581;28;20454;-49
2021/06/19 01:46:38;;;;;;;15.27;9.27;;;25.20;69.30;;;;;;5019748;28;20469;-49
2021/06/19 01:49:05;;;;;;;11.10;8.10;;;25.20;69.10;;;;;;5021651;28;20463;-49
2021/06/19 01:51:32;;;;;;;13.30;8.83;;;25.20;69.10;;;;;;5020158;28;20458;-49
2021/06/19 01:53:59;;;;;;;10.90;8.23;;;25.20;69.40;;;;;;5023300;28;20455;-49
2021/06/19 01:56:26;;;;;;;12.30;8.27;;;25.10;69.60;;;;;;5022205;28;20463;-49
2021/06/19 01:58:53;;;;;;;10.67;8.60;;;25.10;69.80;;;;;;5021050;28;20451;-49
2021/06/19 02:01:20;;;;;;;12.50;7.70;;;25.00;70.00;;;;;;5022723;28;20487;-49
2021/06/19 02:03:48;;;;;;;11.50;8.80;;;25.00;70.00;;;;;;5021108;28;20458;-49
2021/06/19 02:06:15;;;;;;;9.33;8.03;;;24.90;69.80;;;;;;5006615;28;20470;-49
2021/06/19 02:08:56;;;;;;;13.80;9.10;;;24.90;70.00;;;;;;5020758;28;20852;-49
2021/06/19 02:11:23;;;;;;;10.70;8.90;;;24.80;70.20;;;;;;5020363;28;20454;-49
2021/06/19 02:13:50;;;;;;;8.63;7.83;;;24.80;70.40;;;;;;5004759;28;20467;-49
2021/06/19 02:16:16;;;;;;;9.83;7.57;;;24.80;70.50;;;;;;5018363;28;20821;-49
2021/06/19 02:18:43;;;;;;;9.20;8.27;;;24.70;70.50;;;;;;5022088;28;20487;-49
2021/06/19 02:21:10;;;;;;;9.47;8.47;;;24.70;70.70;;;;;;5022247;28;20493;-50
2021/06/19 02:23:36;;;;;;;8.80;7.90;;;24.70;70.80;;;;;;5020291;28;20455;-49
2021/06/19 02:26:03;;;;;;;10.43;7.43;;;24.70;70.70;;;;;;5021637;28;20465;-49
2021/06/19 02:28:30;;;;;;;9.20;7.80;;;24.80;70.10;;;;;;5018682;28;20452;-49
2021/06/19 02:30:58;;;;;;;9.33;7.70;;;24.70;70.00;;;;;;5003727;28;20960;-49
2021/06/19 02:33:26;;;;;;;10.43;8.20;;;24.70;70.00;;;;;;5022031;28;20805;-49
2021/06/19 02:35:53;;;;;;;9.00;7.67;;;24.60;70.10;;;;;;5020530;28;20720;-49
2021/06/19 02:38:22;;;;;;;10.13;8.13;;;24.60;70.30;;;;;;5007001;28;20470;-49
2021/06/19 02:40:50;;;;;;;9.03;7.30;;;24.60;70.50;;;;;;5017693;28;20491;-49
2021/06/19 02:43:19;;;;;;;9.90;8.00;;;24.50;70.60;;;;;;5018222;28;20464;-49
2021/06/19 02:45:47;;;;;;;9.33;6.70;;;24.50;70.70;;;;;;5019130;28;20452;-49
2021/06/19 02:48:14;;;;;;;11.13;8.10;;;24.50;70.80;;;;;;5019070;28;20478;-49
2021/06/19 02:50:43;;;;;;;9.30;7.43;;;24.50;70.90;;;;;;5020314;28;20998;-49
2021/06/19 02:53:12;;;;;;;8.30;7.03;;;24.40;71.00;;;;;;5018749;28;21029;-49
2021/06/19 02:55:41;;;;;;;11.90;7.40;;;24.40;71.00;;;;;;5020952;28;20973;-49
2021/06/19 02:58:09;;;;;;;9.30;8.43;;;24.40;71.00;;;;;;5020082;28;20467;-49
2021/06/19 03:00:37;;;;;;;10.43;8.07;;;24.40;71.20;;;;;;5020323;28;20492;-49
2021/06/19 03:03:05;;;;;;;8.73;7.83;;;24.40;71.30;;;;;;5019192;28;20469;-49
2021/06/19 03:05:34;;;;;;;9.97;8.40;;;24.40;71.40;;;;;;5019881;28;20458;-49
2021/06/19 03:08:02;;;;;;;10.27;8.20;;;24.30;71.50;;;;;;5020309;28;21016;-49
2021/06/19 03:10:38;;;;;;;10.87;7.47;;;24.30;71.70;;;;;;5007737;28;20451;-49
2021/06/19 03:13:06;;;;;;;11.07;7.20;;;24.40;71.70;;;;;;5007093;28;20558;-49
2021/06/19 03:15:33;;;;;;;7.30;6.33;;;24.40;71.50;;;;;;5018335;28;20463;-49
2021/06/19 03:18:00;;;;;;;12.37;7.47;;;24.30;71.50;;;;;;5017604;28;20485;-49
2021/06/19 03:20:27;;;;;;;10.00;7.90;;;24.30;71.60;;;;;;5005554;28;20499;-49
2021/06/19 03:22:56;;;;;;;9.70;8.07;;;24.20;71.60;;;;;;5022132;28;20459;-49
2021/06/19 03:25:26;;;;;;;9.93;7.70;;;24.20;71.60;;;;;;5019561;28;21099;-49
2021/06/19 03:27:55;;;;;;;10.37;8.70;;;24.10;71.70;;;;;;5019350;28;20455;-49
2021/06/19 03:30:23;;;;;;;8.87;7.97;;;24.10;71.80;;;;;;5020706;28;20478;-49
2021/06/19 03:32:50;;;;;;;9.80;8.10;;;24.10;71.80;;;;;;5015219;28;20455;-49
2021/06/19 03:35:18;;;;;;;9.20;7.53;;;24.10;71.80;;;;;;5022601;28;20990;-49
2021/06/19 03:37:45;;;;;;;9.43;8.43;;;24.10;72.10;;;;;;5018822;28;20469;-49
2021/06/19 03:40:14;;;;;;;8.80;7.70;;;24.00;72.20;;;;;;5004626;28;20476;-49
2021/06/19 03:42:43;;;;;;;10.40;7.73;;;24.00;72.30;;;;;;5019225;28;20566;-49
2021/06/19 03:45:10;;;;;;;9.50;8.40;;;24.00;72.40;;;;;;5019490;28;20813;-49
2021/06/19 03:47:39;;;;;;;14.80;7.60;;;23.90;72.50;;;;;;5017600;28;20460;-49
2021/06/19 03:50:08;;;;;;;9.70;8.50;;;23.90;72.60;;;;;;5016701;28;20466;-49
2021/06/19 03:52:35;;;;;;;8.67;7.90;;;23.90;72.70;;;;;;5002397;28;20821;-49
2021/06/19 03:55:03;;;;;;;10.00;7.83;;;23.90;72.70;;;;;;5022330;28;20447;-49
2021/06/19 03:57:32;;;;;;;12.77;8.90;;;23.90;72.70;;;;;;5016001;28;20451;-49
2021/06/19 03:59:59;;;;;;;13.50;8.50;;;23.90;72.50;;;;;;5005570;28;20451;-49
2021/06/19 04:02:26;;;;;;;10.77;7.63;;;23.90;72.30;;;;;;5018156;28;20481;-49
2021/06/19 04:04:53;;;;;;;10.10;7.33;;;23.90;72.30;;;;;;5020039;28;20463;-49
2021/06/19 04:07:20;;;;;;;9.70;7.90;;;23.90;72.40;;;;;;5019764;28;20462;-49
2021/06/19 04:09:48;;;;;;;8.20;7.20;;;23.90;72.40;;;;;;5014800;28;20472;-49
2021/06/19 04:12:25;;;;;;;8.30;7.50;;;23.90;72.00;;;;;;5021921;28;20456;-48
2021/06/19 04:15:17;;;;;;;11.30;8.00;;;23.90;72.00;;;;;;5007220;28;20449;-49
2021/06/19 04:17:44;;;;;;;7.83;6.60;;;23.80;72.10;;;;;;5019845;28;20506;-49
2021/06/19 04:20:14;;;;;;;7.10;6.47;;;23.80;72.20;;;;;;5018214;28;20988;-49
2021/06/19 04:22:42;;;;;;;12.80;7.17;;;23.80;72.10;;;;;;5019088;28;20836;-49
2021/06/19 04:25:12;;;;;;;9.83;6.67;;;23.80;71.50;;;;;;5003418;28;20983;-49
2021/06/19 04:27:51;;;;;;;10.47;6.10;;;23.80;71.40;;;;;;5002743;28;20460;-49
2021/06/19 04:30:20;;;;;;;10.40;6.60;;;23.80;71.30;;;;;;5018013;28;20481;-49
2021/06/19 04:32:48;;;;;;;7.23;6.53;;;23.70;71.40;;;;;;5018911;28;20490;-49
2021/06/19 04:35:16;;;;;;;8.77;6.90;;;23.60;71.70;;;;;;5007658;28;20471;-49
2021/06/19 04:37:45;;;;;;;7.83;6.80;;;23.70;71.80;;;;;;5013695;28;20484;-49
2021/06/19 04:40:19;;;;;;;6.40;5.60;;;23.70;71.90;;;;;;5016658;28;20474;-49
2021/06/19 04:43:00;;;;;;;8.43;5.97;;;23.70;71.90;;;;;;5021396;28;20471;-49
2021/06/19 04:45:27;;;;;;;7.83;6.53;;;23.70;72.10;;;;;;5017151;28;20467;-49
2021/06/19 04:48:01;;;;;;;6.00;5.40;;;23.70;71.80;;;;;;5018695;28;20462;-49
2021/06/19 04:50:33;;;;;;;8.80;6.50;;;23.80;71.80;;;;;;5014945;28;20871;-49
2021/06/19 04:53:01;;;;;;;6.60;5.57;;;23.80;71.80;;;;;;5022439;28;20465;-49
2021/06/19 04:55:29;;;;;;;7.93;6.30;;;23.80;71.90;;;;;;5001971;28;20558;-49
2021/06/19 04:57:58;;;;;;;6.10;5.50;;;23.90;71.60;;;;;;5018417;28;20462;-49
2021/06/19 05:00:27;;;;;;;6.27;5.70;;;23.90;71.40;;;;;;5006719;28;20832;-49
2021/06/19 05:02:55;;;;;;;6.70;6.10;;;24.00;71.40;;;;;;5021018;28;20804;-49
2021/06/19 05:05:23;;;;;;;8.00;5.67;;;24.00;71.60;;;;;;5017818;28;20450;-49
2021/06/19 05:07:50;;;;;;;14.50;6.73;;;24.00;71.40;;;;;;5020321;28;20458;-49
2021/06/19 05:10:17;;;;;;;10.97;6.60;;;24.10;71.40;;;;;;5017136;28;20467;-49
2021/06/19 05:12:45;;;;;;;7.50;6.50;;;24.10;71.60;;;;;;5017604;28;20467;-49
2021/06/19 05:15:16;;;;;;;12.47;7.93;;;24.10;71.50;;;;;;5020045;28;21116;-49
2021/06/19 05:17:43;;;;;;;11.80;7.80;;;24.10;71.40;;;;;;5019299;28;20470;-49
2021/06/19 05:20:10;;;;;;;10.37;7.00;;;24.10;71.40;;;;;;5020143;28;20451;-49
2021/06/19 05:22:37;;;;;;;6.83;6.10;;;24.20;71.50;;;;;;5022254;28;20585;-49
2021/06/19 05:25:05;;;;;;;7.63;6.93;;;24.30;71.20;;;;;;5021237;28;20457;-49
2021/06/19 05:27:32;;;;;;;12.93;6.80;;;24.30;71.00;;;;;;5018872;28;20485;-49
2021/06/19 05:29:59;;;;;;;7.07;6.47;;;24.30;70.90;;;;;;5022237;28;20467;-49
2021/06/19 05:32:25;;;;;;;9.87;7.43;;;24.40;71.10;;;;;;5022545;28;20460;-49
2021/06/19 05:34:52;;;;;;;10.53;6.53;;;24.40;71.20;;;;;;5018758;28;20457;-49
2021/06/19 05:37:19;;;;;;;8.40;6.70;;;24.50;70.70;;;;;;5021898;28;20462;-49
2021/06/19 05:39:46;;;;;;;7.10;6.43;;;24.50;70.90;;;;;;5004488;28;20455;-49
2021/06/19 05:42:13;;;;;;;7.00;6.30;;;24.50;71.00;;;;;;5004206;28;20487;-49
2021/06/19 05:44:40;;;;;;;7.77;5.97;;;24.60;71.00;;;;;;5018506;28;20451;-49
2021/06/19 05:47:07;;;;;;;7.10;5.93;;;24.60;70.70;;;;;;5017108;28;20465;-49
2021/06/19 05:49:40;;;;;;;9.30;5.43;;;24.60;70.40;;;;;;5020273;28;20460;-49
2021/06/19 05:52:07;;;;;;;9.77;5.80;;;24.60;70.50;;;;;;5021335;28;20460;-49
2021/06/19 05:54:36;;;;;;;7.13;5.60;;;24.70;70.10;;;;;;5018851;28;20468;-49
2021/06/19 05:57:04;;;;;;;9.33;4.60;;;24.80;69.00;;;;;;5017685;28;20972;-49
2021/06/19 05:59:31;;;;;;;5.77;4.90;;;24.80;68.60;;;;;;5023293;28;20546;-49
2021/06/19 06:01:58;;;;;;;5.93;5.00;;;24.90;69.30;;;;;;5023194;28;20487;-49
2021/06/19 06:04:25;;;;;;;6.23;4.87;;;24.90;69.40;;;;;;5021098;28;20486;-49
2021/06/19 06:06:52;;;;;;;9.53;5.50;;;24.90;69.70;;;;;;5025134;28;20448;-49
2021/06/19 06:09:18;;;;;;;6.70;4.60;;;25.00;69.10;;;;;;5020669;28;20446;-49
2021/06/19 06:11:45;;;;;;;5.63;5.13;;;25.00;68.90;;;;;;5021805;28;20455;-49
2021/06/19 06:14:12;;;;;;;7.90;4.73;;;25.10;68.70;;;;;;5021009;28;20459;-49
2021/06/19 06:16:39;;;;;;;10.17;4.70;;;25.10;68.00;;;;;;5021596;28;20451;-49
2021/06/19 06:19:07;;;;;;;5.83;3.73;;;25.20;67.00;;;;;;5026011;28;20479;-49
2021/06/19 06:21:34;;;;;;;8.10;4.27;;;25.20;66.70;;;;;;5019165;28;20494;-49
2021/06/19 06:24:01;;;;;;;5.03;3.80;;;25.30;66.70;;;;;;5008682;28;20464;-49
2021/06/19 06:26:27;;;;;;;3.33;3.03;;;25.40;66.40;;;;;;5016919;28;20493;-49
2021/06/19 06:28:54;;;;;;;4.50;3.57;;;25.40;66.40;;;;;;5016731;28;20486;-49
2021/06/19 06:31:21;;;;;;;15.20;3.93;;;25.50;66.20;;;;;;5022342;28;20459;-49
2021/06/19 06:33:48;;;;;;;6.73;3.03;;;25.60;65.40;;;;;;5019398;28;20478;-49
2021/06/19 06:36:14;;;;;;;4.03;2.80;;;25.70;64.90;;;;;;5022075;28;20531;-49
2021/06/19 06:38:41;;;;;;;3.63;2.97;;;25.70;65.20;;;;;;5021473;28;20447;-49
2021/06/19 06:41:08;;;;;;;3.90;2.53;;;25.80;64.70;;;;;;5018199;28;20467;-49
2021/06/19 06:43:34;;;;;;;4.27;2.80;;;25.90;63.90;;;;;;5025266;28;20862;-49
2021/06/19 06:46:01;;;;;;;3.00;1.70;;;25.90;63.90;;;;;;5019126;28;20846;-49
2021/06/19 06:48:29;;;;;;;3.40;1.73;;;26.00;62.70;;;;;;5025924;28;20451;-49
2021/06/19 06:50:57;;;;;;;1.97;1.77;;;26.10;61.10;;;;;;5024138;28;20454;-49
2021/06/19 06:53:28;;;;;;;2.20;2.00;;;26.30;60.70;;;;;;5023233;28;20449;-49
2021/06/19 06:55:55;;;;;;;3.70;1.70;;;26.40;61.20;;;;;;5022260;28;20474;-49
2021/06/19 06:58:22;;;;;;;2.20;2.00;;;26.40;60.50;;;;;;5022426;28;20825;-49
2021/06/19 07:00:48;;;;;;;2.07;1.60;;;26.50;60.50;;;;;;5025851;28;20449;-49
2021/06/19 07:03:15;;;;;;;5.73;2.07;;;26.60;60.70;;;;;;5023111;28;20490;-50
2021/06/19 07:05:42;;;;;;;2.10;2.00;;;26.80;60.70;;;;;;5023721;28;20529;-49
2021/06/19 07:08:09;;;;;;;1.57;1.40;;;26.90;60.10;;;;;;5021724;28;20805;-49
2021/06/19 07:10:35;;;;;;;2.27;2.07;;;27.00;59.30;;;;;;5017793;28;20474;-49
2021/06/19 07:13:02;;;;;;;2.47;1.70;;;27.10;59.70;;;;;;5022081;28;20459;-49
2021/06/19 07:15:29;;;;;;;2.40;2.10;;;27.20;58.50;;;;;;5018878;28;20465;-49
2021/06/19 07:17:56;;;;;;;4.40;1.63;;;27.30;58.50;;;;;;5021007;28;20479;-49
2021/06/19 07:20:22;;;;;;;1.73;1.53;;;27.40;57.40;;;;;;5019935;28;20490;-49
2021/06/19 07:22:49;;;;;;;1.53;1.30;;;27.50;57.20;;;;;;5021185;28;20484;-49
2021/06/19 07:25:17;;;;;;;3.90;2.07;;;27.60;57.40;;;;;;5020330;28;20546;-49
2021/06/19 07:27:47;;;;;;;2.73;1.83;;;27.70;57.50;;;;;;5020658;28;20513;-49
2021/06/19 07:30:14;;;;;;;5.50;2.00;;;27.90;57.50;;;;;;5023749;28;20466;-49
2021/06/19 07:32:41;;;;;;;1.77;1.67;;;28.00;56.20;;;;;;5008692;28;21215;-49
2021/06/19 07:35:08;;;;;;;2.40;2.20;;;28.10;56.00;;;;;;5020928;28;20908;-49
2021/06/19 07:37:35;;;;;;;2.60;1.90;;;28.30;56.00;;;;;;5021233;28;20443;-49
2021/06/19 07:40:03;;;;;;;1.93;1.83;;;28.40;55.90;;;;;;5002290;28;20295;-49
2021/06/19 07:42:31;;;;;;;2.07;1.67;;;28.50;54.20;;;;;;5017254;28;20486;-49
2021/06/19 07:44:58;;;;;;;6.47;2.17;;;28.60;54.20;;;;;;5018688;28;20202;-49
2021/06/19 07:47:25;;;;;;;3.43;1.43;;;28.70;54.20;;;;;;5017380;28;20450;-49
2021/06/19 07:49:52;;;;;;;2.03;1.90;;;28.80;54.40;;;;;;5014963;28;20217;-50
2021/06/19 07:52:18;;;;;;;3.97;2.23;;;29.00;54.90;;;;;;5015711;28;20204;-50
2021/06/19 07:54:46;;;;;;;1.93;1.77;;;29.10;54.40;;;;;;5013167;28;20212;-49
2021/06/19 07:57:12;;;;;;;9.63;2.60;;;29.20;53.90;;;;;;5012205;28;20654;-49
2021/06/19 07:59:39;;;;;;;2.17;1.97;;;29.20;53.60;;;;;;5017835;28;20575;-50
2021/06/19 08:02:06;;;;;;;2.70;1.80;;;29.40;53.80;;;;;;5016763;28;20235;-50
2021/06/19 08:04:34;;;;;;;2.07;1.73;;;29.50;53.40;;;;;;5016953;28;20569;-50
2021/06/19 08:07:05;;;;;;;1.70;1.60;;;29.60;51.60;;;;;;5014512;28;20235;-50
2021/06/19 08:09:31;;;;;;;1.80;1.60;;;29.60;51.00;;;;;;5013202;28;20271;-50
2021/06/19 08:11:58;;;;;;;2.15;1.75;;;29.70;50.70;;;;;;4988320;28;20200;-50
2021/06/19 08:14:28;;;;;;;2.10;1.90;;;29.80;51.20;;;;;;5015560;28;20208;-49
2021/06/19 08:17:08;;;;;;;3.00;2.10;;;29.90;51.10;;;;;;5006832;28;20212;-50
2021/06/19 08:19:35;;;;;;;3.67;2.10;;;30.00;51.30;;;;;;5013994;28;20231;-50
2021/06/19 08:22:05;;;;;;;1.73;1.53;;;30.10;52.00;;;;;;5017542;28;20228;-50
2021/06/19 08:24:32;;;;;;;2.30;2.10;;;30.10;51.70;;;;;;4997020;28;20698;-50
2021/06/19 08:26:59;;;;;;;5.15;1.75;;;30.10;51.60;;;;;;5018238;28;20209;-50
2021/06/19 08:29:26;;;;;;;8.07;2.53;;;30.20;50.70;;;;;;5018431;28;20209;-50
2021/06/19 08:31:55;;;;;;;6.17;2.70;;;30.20;51.40;;;;;;5005558;28;20671;-50
2021/06/19 08:34:22;;;;;;;2.85;2.33;;;30.30;50.70;;;;;;5005873;28;20701;-50
2021/06/19 08:36:49;;;;;;;2.88;2.08;;;30.30;49.40;;;;;;5018281;28;20211;-50
2021/06/19 08:39:15;;;;;;;18.65;4.50;;;30.50;50.00;;;;;;5019637;28;20207;-50
2021/06/19 08:41:48;;;;;;;5.10;2.25;;;30.50;49.80;;;;;;5002001;28;20428;-50
2021/06/19 08:44:27;;;;;;;2.50;1.90;;;30.60;49.80;;;;;;5021418;28;20677;-50
2021/06/19 08:47:04;;;;;;;3.25;2.05;;;30.70;49.80;;;;;;5006645;28;20651;-50
2021/06/19 08:49:31;;;;;;;2.33;2.13;;;30.90;49.00;;;;;;5017792;28;20208;-50
2021/06/19 08:51:59;;;;;;;16.42;4.45;;;31.00;49.20;;;;;;5003460;28;20658;-50
2021/06/19 08:54:27;;;;;;;4.45;2.33;;;31.10;49.80;;;;;;5018650;28;20208;-50
2021/06/19 08:56:54;;;;;;;2.63;2.42;;;31.20;49.50;;;;;;5020196;28;20209;-50
2021/06/19 08:59:22;;;;;;;4.18;2.50;;;31.20;48.90;;;;;;5003047;28;20208;-50
2021/06/19 09:01:49;;;;;;;3.22;2.28;;;31.40;49.00;;;;;;5023064;28;20227;-50
2021/06/19 09:04:17;;;;;;;7.28;3.00;;;31.60;48.50;;;;;;5020345;28;20211;-50
2021/06/19 09:06:44;;;;;;;3.58;3.28;;;31.70;48.40;;;;;;5008691;28;20239;-50
2021/06/19 09:09:14;;;;;;;3.33;2.60;;;31.80;48.20;;;;;;5009429;28;20196;-50
2021/06/19 09:11:42;;;;;;;2.78;2.53;;;31.90;48.20;;;;;;5021401;28;20197;-50
2021/06/19 09:14:27;;;;;;;3.63;3.33;;;31.90;48.10;;;;;;5022516;28;20200;-50
2021/06/19 09:17:00;;;;;;;7.28;3.55;;;32.00;49.10;;;;;;5004836;28;20212;-50
2021/06/19 09:19:28;;;;;;;2.97;2.72;;;32.10;48.50;;;;;;5021190;28;20283;-50
2021/06/19 09:22:11;;;;;;;3.85;3.25;;;32.10;48.70;;;;;;5020489;28;20243;-50
2021/06/19 09:24:58;;;;;;;4.15;3.30;;;32.30;48.80;;;;;;5021697;28;20207;-50
2021/06/19 09:27:46;;;;;;;3.38;2.40;;;32.60;47.40;;;;;;5022326;28;20196;-50
2021/06/19 09:30:15;;;;;;;3.45;2.40;;;32.90;45.90;;;;;;5020070;28;20218;-49
2021/06/19 09:32:42;;;;;;;2.90;2.60;;;33.10;45.10;;;;;;5021808;28;20228;-50
2021/06/19 09:35:20;;;;;;;2.65;2.45;;;33.30;44.80;;;;;;5015456;28;20231;-50
2021/06/19 09:37:50;;;;;;;2.88;2.50;;;33.70;44.60;;;;;;5021471;28;20210;-48
2021/06/19 09:40:37;;;;;;;4.28;2.80;;;34.00;43.60;;;;;;5017516;28;20212;-50
2021/06/19 09:43:20;;;;;;;4.43;2.95;;;34.40;43.10;;;;;;5023208;28;20370;-50
2021/06/19 09:46:09;;;;;;;9.80;3.33;;;34.60;43.30;;;;;;5018906;28;20211;-50
2021/06/19 09:48:41;;;;;;;6.57;3.00;;;34.90;43.60;;;;;;5021760;28;20771;-50
2021/06/19 09:51:10;;;;;;;6.07;3.00;;;35.10;43.60;;;;;;5019404;28;20204;-50
2021/06/19 09:53:38;;;;;;;5.93;2.78;;;35.20;43.50;;;;;;5008241;28;20308;-50
2021/06/19 09:56:09;;;;;;;3.78;2.50;;;35.10;43.10;;;;;;5007409;28;20215;-50
2021/06/19 09:58:41;;;;;;;7.35;3.00;;;35.00;43.50;;;;;;5007261;28;20208;-49
2021/06/19 10:01:08;;;;;;;4.45;2.85;;;34.90;43.50;;;;;;5023718;28;20553;-49
2021/06/19 10:03:50;;;;;;;3.03;2.83;;;34.80;43.60;;;;;;5023619;28;20239;-50
2021/06/19 10:06:17;;;;;;;3.10;2.80;;;34.50;43.50;;;;;;5017519;28;20213;-50
2021/06/19 10:08:45;;;;;;;3.47;2.58;;;34.40;43.60;;;;;;5018871;28;20211;-50
2021/06/19 10:11:13;;;;;;;3.35;2.70;;;34.30;44.20;;;;;;5018738;28;20213;-49
2021/06/19 10:13:44;;;;;;;4.13;2.80;;;34.10;43.90;;;;;;5016297;28;20201;-49
2021/06/19 10:16:13;;;;;;;3.88;3.10;;;33.80;44.70;;;;;;5017297;28;20580;-50
2021/06/19 10:18:41;;;;;;;3.83;3.05;;;33.60;45.10;;;;;;5017222;28;20664;-51
2021/06/19 10:21:09;;;;;;;22.30;5.10;;;33.40;45.40;;;;;;5005659;28;20260;-50
2021/06/19 10:23:36;;;;;;;3.63;2.63;;;33.20;45.80;;;;;;5019124;28;20249;-49
2021/06/19 10:26:03;;;;;;;6.43;3.80;;;32.90;45.90;;;;;;5009003;28;20212;-49
2021/06/19 10:28:32;;;;;;;7.00;3.20;;;32.70;46.50;;;;;;5019946;28;20291;-50
2021/06/19 10:30:59;;;;;;;5.75;2.67;;;32.50;47.30;;;;;;5024034;28;20231;-50
2021/06/19 10:33:35;;;;;;;3.88;3.58;;;32.40;47.40;;;;;;5020804;28;20289;-50
2021/06/19 10:36:05;;;;;;;4.07;3.67;;;32.20;47.30;;;;;;5018237;28;20223;-50
2021/06/19 10:38:48;;;;;;;5.85;3.97;;;32.10;47.70;;;;;;5020036;28;20232;-49
2021/06/19 10:41:16;;;;;;;5.30;3.47;;;32.00;48.00;;;;;;5022978;28;20211;-50
2021/06/19 10:43:46;;;;;;;4.63;3.65;;;31.90;48.20;;;;;;5022638;28;20224;-50
2021/06/19 10:46:36;;;;;;;4.53;3.70;;;31.80;48.60;;;;;;5020462;28;20208;-51
2021/06/19 10:49:23;;;;;;;4.03;3.45;;;31.80;49.00;;;;;;5001955;28;20538;-50
2021/06/19 10:51:50;;;;;;;10.00;3.30;;;31.70;49.20;;;;;;5005788;28;20215;-50
2021/06/19 10:54:21;;;;;;;4.25;3.85;;;31.70;49.60;;;;;;5022241;28;20212;-50
2021/06/19 10:56:58;;;;;;;3.95;3.40;;;31.60;49.70;;;;;;5024519;28;20915;-50
2021/06/19 10:59:33;;;;;;;7.00;5.50;;;31.40;50.00;;;;;;5019843;28;20214;-49
2021/06/19 11:02:02;;;;;;;4.50;4.10;;;31.30;51.00;;;;;;5026159;28;20637;-50
2021/06/19 11:04:35;;;;;;;5.65;4.40;;;31.30;50.10;;;;;;5020246;28;20291;-50
2021/06/19 11:07:03;;;;;;;9.27;4.75;;;31.30;50.20;;;;;;5017545;28;20200;-50
2021/06/19 11:09:50;;;;;;;5.43;3.95;;;31.30;50.20;;;;;;5020074;28;20573;-50
2021/06/19 11:12:32;;;;;;;5.30;4.38;;;31.20;49.70;;;;;;5008063;28;20226;-50
2021/06/19 11:15:04;;;;;;;5.50;4.13;;;31.10;50.00;;;;;;5019442;28;20200;-50
2021/06/19 11:17:34;;;;;;;4.85;4.45;;;31.10;50.70;;;;;;5019081;28;20201;-50
2021/06/19 11:20:22;;;;;;;6.85;4.47;;;31.10;51.00;;;;;;5003366;28;20204;-50
2021/06/19 11:23:03;;;;;;;7.68;4.53;;;31.00;51.20;;;;;;5018873;28;20227;-50
2021/06/19 11:25:36;;;;;;;5.72;4.40;;;31.00;51.20;;;;;;5022862;28;20210;-50
2021/06/19 11:28:19;;;;;;;5.57;4.10;;;31.00;51.40;;;;;;5022936;28;20209;-50
2021/06/19 11:30:51;;;;;;;5.13;4.63;;;31.10;51.80;;;;;;5022938;28;20292;-49
2021/06/19 11:33:21;;;;;;;5.78;4.32;;;31.00;51.50;;;;;;5005284;28;20223;-50
2021/06/19 11:35:50;;;;;;;3.90;3.60;;;31.10;51.40;;;;;;5018731;28;20208;-50
2021/06/19 11:38:17;;;;;;;4.57;4.18;;;31.10;51.10;;;;;;5020436;28;20270;-50
2021/06/19 11:40:47;;;;;;;8.70;4.82;;;31.20;51.40;;;;;;5018317;28;20232;-50
2021/06/19 11:43:27;;;;;;;7.80;5.03;;;31.10;51.50;;;;;;5017961;28;20225;-50
2021/06/19 11:45:59;;;;;;;4.72;4.28;;;31.10;51.50;;;;;;5020668;28;20599;-50
2021/06/19 11:48:27;;;;;;;5.00;4.57;;;31.10;51.00;;;;;;5020682;28;20725;-50
2021/06/19 11:51:05;;;;;;;5.53;4.93;;;31.10;50.80;;;;;;5021971;28;20607;-48
2021/06/19 11:53:38;;;;;;;4.82;4.43;;;31.10;50.80;;;;;;5005389;28;20655;-48
2021/06/19 11:56:09;;;;;;;9.93;4.82;;;31.20;51.00;;;;;;5019797;28;20615;-50
2021/06/19 11:58:50;;;;;;;6.30;4.75;;;31.20;51.60;;;;;;5022218;28;20207;-50
2021/06/19 12:01:38;;;;;;;5.72;4.80;;;31.30;51.70;;;;;;5023716;28;20216;-50
2021/06/19 12:04:07;;;;;;;6.63;4.90;;;31.20;51.50;;;;;;5020044;28;21052;-50
2021/06/19 12:06:35;;;;;;;7.32;4.28;;;31.20;52.20;;;;;;5004945;28;20200;-50
2021/06/19 12:09:07;;;;;;;5.22;4.72;;;31.20;51.80;;;;;;4990071;28;20235;-48
2021/06/19 12:11:39;;;;;;;8.88;4.75;;;31.20;51.40;;;;;;5020427;28;20214;-48
2021/06/19 12:14:20;;;;;;;5.55;5.05;;;31.20;51.30;;;;;;5017896;28;20291;-48
2021/06/19 12:16:50;;;;;;;5.03;4.43;;;31.20;51.70;;;;;;5019746;28;20650;-49
2021/06/19 12:19:18;;;;;;;5.45;4.93;;;31.30;53.20;;;;;;5017184;28;20243;-49
2021/06/19 12:21:46;;;;;;;5.25;4.65;;;31.20;52.50;;;;;;5015933;28;20219;-50
2021/06/19 12:24:29;;;;;;;5.93;5.15;;;31.20;52.20;;;;;;5020118;28;20242;-49
2021/06/19 12:27:06;;;;;;;10.65;5.07;;;31.20;52.60;;;;;;5009476;28;20208;-50
2021/06/19 12:29:53;;;;;;;6.47;5.63;;;31.30;52.80;;;;;;5023146;28;20230;-50
2021/06/19 12:32:34;;;;;;;6.60;4.95;;;31.30;51.80;;;;;;5020988;28;20575;-50
2021/06/19 12:35:03;;;;;;;5.93;4.90;;;31.20;52.10;;;;;;5022745;28;20251;-49
2021/06/19 12:37:38;;;;;;;7.03;5.05;;;31.10;52.30;;;;;;5020523;28;20203;-50
2021/06/19 12:40:12;;;;;;;8.90;5.25;;;31.10;53.00;;;;;;4999743;28;20210;-49
2021/06/19 12:42:45;;;;;;;11.50;5.75;;;31.10;52.40;;;;;;5018770;28;20212;-50
2021/06/19 12:45:14;;;;;;;5.18;4.65;;;31.10;51.00;;;;;;5021178;28;20204;-50
2021/06/19 12:47:45;;;;;;;6.10;5.50;;;31.10;51.30;;;;;;5023091;28;20553;-49
2021/06/19 12:50:14;;;;;;;5.35;4.53;;;31.10;51.50;;;;;;5017150;28;20299;-49
2021/06/19 12:52:59;;;;;;;5.55;3.83;;;31.10;50.90;;;;;;5021872;28;20251;-49
2021/06/19 12:55:28;;;;;;;4.78;4.28;;;31.10;50.10;;;;;;5020400;28;20568;-50
2021/06/19 12:58:46;;;;;;;5.53;4.13;;;31.10;48.30;;;;;;5017590;28;20683;-50